map of BGO home
BGO - Airport
Location
City:  Bergen, Norway
Name:Flesland
ICAO:ENBR
IATA:BGO

Details
Type:Airport (Aerodrome, Airfield)
Use:Public/Civil, International (customs port of entry)
Latitude:6017'36"N (60.293386)
Longitude:513'05"E (5.218142)
Datum:WGS 1984
Elevation:170 ft (52 m)
Variation:0.84E (WMM2015 magnetic declination)
0.18 annual change
Runways:1
Longest:9810 × 148 ft (2990 × 45 m), paved

Time
Time Zone:UTC+1 (DST+2)
Local Time:

Weather
METAR:ENBR 140150Z 10008KT CAVOK 04/M03 Q0974 RMK WIND 1200FT 11019KT
TAF:ENBR 132300Z 1400/1424 VRB06KT 9999 SCT015 BKN030
TEMPO 1400/1409 14012KT 3000 SHRASNGS BKN012CB

Related Locations
Nearby:
Farthest:NZTB: 11301 mi / 18188 km
Terra Nova Bay [Mario Zucchelli Station], AQ

Find:

   beyond  
but within

Other Information
Maps:
NOTAMs:
Links:
Sources:

  
flag of Norway   

Airport Diagram

Airport diagram for BGO

Larger airport diagram (OBSOLETE) from NGA

Sectional Chart

Flight Planning
at skyvector.com

Satellite Image

Google Maps Satellite view

 

Copyright © 2004-2017 Karl L. Swartz. All rights reserved.
The Great Circle Mapper name and logo are trademarks of the Great Circle Mapper.
All other trademarks mentioned herein belong to their respective owners.
Please see credits for attibutions and further copyright information.

  Follow gcmap on Facebook Follow gcmap on Twitter Follow gcmap on Google+ GCmap on LinkedIn

hCard Microformat

Geo Microformat